sensor_id;sensor_type;location;lat;lon;timestamp;temperature;humidity
2967;DHT22;1493;51.496;7.210;2023-07-13T00:00:36;18.70;1.00
2967;DHT22;1493;51.496;7.210;2023-07-13T00:03:04;18.70;1.00
2967;DHT22;1493;51.496;7.210;2023-07-13T00:05:31;18.70;99.90
2967;DHT22;1493;51.496;7.210;2023-07-13T00:07:58;18.70;1.00
2967;DHT22;1493;51.496;7.210;2023-07-13T00:10:25;18.70;1.00
2967;DHT22;1493;51.496;7.210;2023-07-13T00:12:52;18.70;1.00
2967;DHT22;1493;51.496;7.210;2023-07-13T00:15:22;18.60;99.90
2967;DHT22;1493;51.496;7.210;2023-07-13T00:17:49;18.60;99.90
2967;DHT22;1493;51.496;7.210;2023-07-13T00:20:18;18.60;1.00
2967;DHT22;1493;51.496;7.210;2023-07-13T00:22:47;18.60;1.00
2967;DHT22;1493;51.496;7.210;2023-07-13T00:25:14;18.60;99.90
2967;DHT22;1493;51.496;7.210;2023-07-13T00:27:42;18.50;1.00
2967;DHT22;1493;51.496;7.210;2023-07-13T00:30:09;18.50;99.90
2967;DHT22;1493;51.496;7.210;2023-07-13T00:32:37;18.50;1.00
2967;DHT22;1493;51.496;7.210;2023-07-13T00:35:05;18.10;1.00
2967;DHT22;1493;51.496;7.210;2023-07-13T00:37:33;18.40;1.00
2967;DHT22;1493;51.496;7.210;2023-07-13T00:40:01;18.40;99.90
2967;DHT22;1493;51.496;7.210;2023-07-13T00:42:28;18.40;99.90
2967;DHT22;1493;51.496;7.210;2023-07-13T00:45:04;18.30;99.90
2967;DHT22;1493;51.496;7.210;2023-07-13T00:47:31;18.30;1.00
2967;DHT22;1493;51.496;7.210;2023-07-13T00:49:58;18.30;99.90
2967;DHT22;1493;51.496;7.210;2023-07-13T00:52:25;18.30;1.00
2967;DHT22;1493;51.496;7.210;2023-07-13T00:54:53;18.20;1.00
2967;DHT22;1493;51.496;7.210;2023-07-13T00:57:21;18.20;99.90
2967;DHT22;1493;51.496;7.210;2023-07-13T00:59:52;18.10;99.90
2967;DHT22;1493;51.496;7.210;2023-07-13T01:02:20;18.10;99.90
2967;DHT22;1493;51.496;7.210;2023-07-13T01:04:48;18.10;1.00
2967;DHT22;1493;51.496;7.210;2023-07-13T01:07:15;18.10;99.90
2967;DHT22;1493;51.496;7.210;2023-07-13T01:09:41;18.00;1.00
2967;DHT22;1493;51.496;7.210;2023-07-13T01:12:11;18.00;99.90
2967;DHT22;1493;51.496;7.210;2023-07-13T01:14:39;18.10;99.90
2967;DHT22;1493;51.496;7.210;2023-07-13T01:17:09;17.90;1.00
2967;DHT22;1493;51.496;7.210;2023-07-13T01:19:38;17.90;1.00
2967;DHT22;1493;51.496;7.210;2023-07-13T01:22:08;17.90;99.90
2967;DHT22;1493;51.496;7.210;2023-07-13T01:24:37;17.90;1.00
2967;DHT22;1493;51.496;7.210;2023-07-13T01:27:06;18.00;1.00
2967;DHT22;1493;51.496;7.210;2023-07-13T01:29:35;18.00;99.90
2967;DHT22;1493;51.496;7.210;2023-07-13T01:32:08;17.80;1.00
2967;DHT22;1493;51.496;7.210;2023-07-13T01:34:35;17.80;1.00
2967;DHT22;1493;51.496;7.210;2023-07-13T01:37:03;17.90;99.90
2967;DHT22;1493;51.496;7.210;2023-07-13T01:39:31;17.80;99.90
2967;DHT22;1493;51.496;7.210;2023-07-13T01:41:58;17.80;99.90
2967;DHT22;1493;51.496;7.210;2023-07-13T01:44:25;17.80;1.00
2967;DHT22;1493;51.496;7.210;2023-07-13T01:46:52;17.80;1.00
2967;DHT22;1493;51.496;7.210;2023-07-13T01:49:19;17.80;1.00
2967;DHT22;1493;51.496;7.210;2023-07-13T01:51:46;17.70;99.90
2967;DHT22;1493;51.496;7.210;2023-07-13T01:54:13;17.70;71.10
2967;DHT22;1493;51.496;7.210;2023-07-13T01:56:41;17.60;1.00
2967;DHT22;1493;51.496;7.210;2023-07-13T01:59:08;17.60;99.90
2967;DHT22;1493;51.496;7.210;2023-07-13T02:01:35;17.60;1.00
2967;DHT22;1493;51.496;7.210;2023-07-13T02:04:02;17.60;99.90
2967;DHT22;1493;51.496;7.210;2023-07-13T02:06:29;17.50;99.90
2967;DHT22;1493;51.496;7.210;2023-07-13T02:08:56;17.50;1.00
2967;DHT22;1493;51.496;7.210;2023-07-13T02:11:23;17.50;99.90
2967;DHT22;1493;51.496;7.210;2023-07-13T02:13:51;17.60;99.90
2967;DHT22;1493;51.496;7.210;2023-07-13T02:16:18;17.60;99.90
2967;DHT22;1493;51.496;7.210;2023-07-13T02:18:45;17.60;99.90
2967;DHT22;1493;51.496;7.210;2023-07-13T02:21:12;17.60;1.00
2967;DHT22;1493;51.496;7.210;2023-07-13T02:23:38;17.60;1.00
2967;DHT22;1493;51.496;7.210;2023-07-13T02:26:05;17.50;1.00
2967;DHT22;1493;51.496;7.210;2023-07-13T02:28:32;17.50;1.00
2967;DHT22;1493;51.496;7.210;2023-07-13T02:31:06;17.60;99.90
2967;DHT22;1493;51.496;7.210;2023-07-13T02:33:33;17.60;99.90
2967;DHT22;1493;51.496;7.210;2023-07-13T02:36:00;17.50;99.90
2967;DHT22;1493;51.496;7.210;2023-07-13T02:38:27;17.40;99.90
2967;DHT22;1493;51.496;7.210;2023-07-13T02:40:53;17.50;1.00
2967;DHT22;1493;51.496;7.210;2023-07-13T02:43:21;17.50;99.90
2967;DHT22;1493;51.496;7.210;2023-07-13T02:45:48;17.50;99.90
2967;DHT22;1493;51.496;7.210;2023-07-13T02:48:16;17.50;1.00
2967;DHT22;1493;51.496;7.210;2023-07-13T02:50:44;17.50;1.00
2967;DHT22;1493;51.496;7.210;2023-07-13T02:53:11;17.40;1.00
2967;DHT22;1493;51.496;7.210;2023-07-13T02:55:41;17.40;1.00
2967;DHT22;1493;51.496;7.210;2023-07-13T02:58:12;17.50;1.00
2967;DHT22;1493;51.496;7.210;2023-07-13T03:00:42;17.40;99.90
2967;DHT22;1493;51.496;7.210;2023-07-13T03:03:09;17.40;1.00
2967;DHT22;1493;51.496;7.210;2023-07-13T03:05:39;17.50;72.00
2967;DHT22;1493;51.496;7.210;2023-07-13T03:08:07;17.40;27.70
2967;DHT22;1493;51.496;7.210;2023-07-13T03:10:34;17.40;11.60
2967;DHT22;1493;51.496;7.210;2023-07-13T03:13:01;17.30;1.00
2967;DHT22;1493;51.496;7.210;2023-07-13T03:15:28;17.30;99.90
2967;DHT22;1493;51.496;7.210;2023-07-13T03:17:55;17.30;51.20
2967;DHT22;1493;51.496;7.210;2023-07-13T03:20:22;17.20;99.90
2967;DHT22;1493;51.496;7.210;2023-07-13T03:22:50;17.30;99.90
2967;DHT22;1493;51.496;7.210;2023-07-13T03:25:17;17.20;1.00
2967;DHT22;1493;51.496;7.210;2023-07-13T03:27:44;17.30;99.90
2967;DHT22;1493;51.496;7.210;2023-07-13T03:30:11;17.20;1.00
2967;DHT22;1493;51.496;7.210;2023-07-13T03:32:38;17.30;1.00
2967;DHT22;1493;51.496;7.210;2023-07-13T03:35:06;17.00;99.90
2967;DHT22;1493;51.496;7.210;2023-07-13T03:37:32;17.20;99.90
2967;DHT22;1493;51.496;7.210;2023-07-13T03:40:01;17.20;1.00
2967;DHT22;1493;51.496;7.210;2023-07-13T03:42:28;17.20;99.90
2967;DHT22;1493;51.496;7.210;2023-07-13T03:44:55;17.20;99.90
2967;DHT22;1493;51.496;7.210;2023-07-13T03:47:22;17.10;99.90
2967;DHT22;1493;51.496;7.210;2023-07-13T03:49:49;17.10;1.00
2967;DHT22;1493;51.496;7.210;2023-07-13T03:52:15;17.00;1.00
2967;DHT22;1493;51.496;7.210;2023-07-13T03:54:42;17.10;1.00
2967;DHT22;1493;51.496;7.210;2023-07-13T03:57:10;17.10;99.90
2967;DHT22;1493;51.496;7.210;2023-07-13T03:59:37;17.10;1.00
2967;DHT22;1493;51.496;7.210;2023-07-13T04:02:04;17.10;99.90
2967;DHT22;1493;51.496;7.210;2023-07-13T04:04:31;17.10;99.90
2967;DHT22;1493;51.496;7.210;2023-07-13T04:06:58;17.10;1.00
2967;DHT22;1493;51.496;7.210;2023-07-13T04:09:25;17.10;72.20
2967;DHT22;1493;51.496;7.210;2023-07-13T04:14:20;17.20;99.90
2967;DHT22;1493;51.496;7.210;2023-07-13T04:16:47;17.20;1.00
2967;DHT22;1493;51.496;7.210;2023-07-13T04:19:14;17.20;99.90
2967;DHT22;1493;51.496;7.210;2023-07-13T04:21:40;17.20;1.00
2967;DHT22;1493;51.496;7.210;2023-07-13T04:24:07;17.20;1.00
2967;DHT22;1493;51.496;7.210;2023-07-13T04:26:34;17.30;99.90
2967;DHT22;1493;51.496;7.210;2023-07-13T04:29:04;17.30;1.00
2967;DHT22;1493;51.496;7.210;2023-07-13T04:31:32;17.30;99.90
2967;DHT22;1493;51.496;7.210;2023-07-13T04:33:59;17.30;1.00
2967;DHT22;1493;51.496;7.210;2023-07-13T04:36:26;18.00;99.90
2967;DHT22;1493;51.496;7.210;2023-07-13T04:38:53;17.40;99.90
2967;DHT22;1493;51.496;7.210;2023-07-13T04:41:20;17.30;1.00
2967;DHT22;1493;51.496;7.210;2023-07-13T04:43:47;17.40;92.00
2967;DHT22;1493;51.496;7.210;2023-07-13T04:46:16;17.30;99.90
2967;DHT22;1493;51.496;7.210;2023-07-13T04:48:46;17.30;1.00
2967;DHT22;1493;51.496;7.210;2023-07-13T04:51:12;17.40;99.90
2967;DHT22;1493;51.496;7.210;2023-07-13T04:53:39;17.40;76.90
2967;DHT22;1493;51.496;7.210;2023-07-13T04:56:06;17.40;99.90
2967;DHT22;1493;51.496;7.210;2023-07-13T04:58:33;17.50;99.90
2967;DHT22;1493;51.496;7.210;2023-07-13T05:01:01;17.60;57.10
2967;DHT22;1493;51.496;7.210;2023-07-13T05:03:29;17.70;99.90
2967;DHT22;1493;51.496;7.210;2023-07-13T05:05:58;17.70;99.90
2967;DHT22;1493;51.496;7.210;2023-07-13T05:08:25;17.80;99.90
2967;DHT22;1493;51.496;7.210;2023-07-13T05:10:52;17.70;1.00
2967;DHT22;1493;51.496;7.210;2023-07-13T05:13:19;17.80;99.90
2967;DHT22;1493;51.496;7.210;2023-07-13T05:15:47;18.30;99.90
2967;DHT22;1493;51.496;7.210;2023-07-13T05:18:21;17.80;1.00
2967;DHT22;1493;51.496;7.210;2023-07-13T05:20:58;17.80;1.00
2967;DHT22;1493;51.496;7.210;2023-07-13T05:23:25;17.70;1.00
2967;DHT22;1493;51.496;7.210;2023-07-13T05:25:52;17.60;99.90
2967;DHT22;1493;51.496;7.210;2023-07-13T05:28:19;17.70;99.90
2967;DHT22;1493;51.496;7.210;2023-07-13T05:30:46;17.70;99.90
2967;DHT22;1493;51.496;7.210;2023-07-13T05:33:13;17.80;1.00
2967;DHT22;1493;51.496;7.210;2023-07-13T05:35:40;17.90;1.00
2967;DHT22;1493;51.496;7.210;2023-07-13T05:38:08;17.80;7.30
2967;DHT22;1493;51.496;7.210;2023-07-13T05:40:35;17.90;1.00
2967;DHT22;1493;51.496;7.210;2023-07-13T05:43:01;18.00;1.00
2967;DHT22;1493;51.496;7.210;2023-07-13T05:45:28;18.00;99.90
2967;DHT22;1493;51.496;7.210;2023-07-13T05:47:55;18.00;99.90
2967;DHT22;1493;51.496;7.210;2023-07-13T05:50:22;18.10;43.80
2967;DHT22;1493;51.496;7.210;2023-07-13T05:52:49;18.00;1.00
2967;DHT22;1493;51.496;7.210;2023-07-13T05:55:17;18.10;99.90
2967;DHT22;1493;51.496;7.210;2023-07-13T05:57:44;18.10;99.90
2967;DHT22;1493;51.496;7.210;2023-07-13T06:00:12;18.20;97.50
2967;DHT22;1493;51.496;7.210;2023-07-13T06:02:39;18.20;99.90
2967;DHT22;1493;51.496;7.210;2023-07-13T06:05:06;18.30;99.90
2967;DHT22;1493;51.496;7.210;2023-07-13T06:07:37;18.10;1.00
2967;DHT22;1493;51.496;7.210;2023-07-13T06:10:05;18.20;1.00
2967;DHT22;1493;51.496;7.210;2023-07-13T06:12:33;18.20;99.90
2967;DHT22;1493;51.496;7.210;2023-07-13T06:15:00;18.30;1.00
2967;DHT22;1493;51.496;7.210;2023-07-13T06:17:27;18.20;61.00
2967;DHT22;1493;51.496;7.210;2023-07-13T06:19:53;18.30;1.00
2967;DHT22;1493;51.496;7.210;2023-07-13T06:22:20;18.30;39.30
2967;DHT22;1493;51.496;7.210;2023-07-13T06:24:47;18.30;16.10
2967;DHT22;1493;51.496;7.210;2023-07-13T06:27:14;18.40;1.00
2967;DHT22;1493;51.496;7.210;2023-07-13T06:29:42;18.20;1.00
2967;DHT22;1493;51.496;7.210;2023-07-13T06:32:10;18.10;99.90
2967;DHT22;1493;51.496;7.210;2023-07-13T06:34:37;18.10;99.90
2967;DHT22;1493;51.496;7.210;2023-07-13T06:37:04;18.10;1.00
2967;DHT22;1493;51.496;7.210;2023-07-13T06:39:31;18.10;1.00
2967;DHT22;1493;51.496;7.210;2023-07-13T06:41:58;18.10;1.00
2967;DHT22;1493;51.496;7.210;2023-07-13T06:44:25;18.20;1.00
2967;DHT22;1493;51.496;7.210;2023-07-13T06:46:53;18.30;1.00
2967;DHT22;1493;51.496;7.210;2023-07-13T06:49:20;18.40;1.00
2967;DHT22;1493;51.496;7.210;2023-07-13T06:51:47;18.40;1.00
2967;DHT22;1493;51.496;7.210;2023-07-13T06:54:14;18.60;1.00
2967;DHT22;1493;51.496;7.210;2023-07-13T06:56:40;18.60;60.50
2967;DHT22;1493;51.496;7.210;2023-07-13T06:59:07;18.60;1.00
2967;DHT22;1493;51.496;7.210;2023-07-13T07:01:34;18.60;99.90
2967;DHT22;1493;51.496;7.210;2023-07-13T07:04:03;18.70;55.40
2967;DHT22;1493;51.496;7.210;2023-07-13T07:06:30;18.80;35.20
2967;DHT22;1493;51.496;7.210;2023-07-13T07:08:57;18.80;99.90
2967;DHT22;1493;51.496;7.210;2023-07-13T07:11:25;19.00;99.90
2967;DHT22;1493;51.496;7.210;2023-07-13T07:13:53;18.90;99.90
2967;DHT22;1493;51.496;7.210;2023-07-13T07:16:20;18.90;99.90
2967;DHT22;1493;51.496;7.210;2023-07-13T07:18:47;18.90;1.00
2967;DHT22;1493;51.496;7.210;2023-07-13T07:21:16;18.80;1.00
2967;DHT22;1493;51.496;7.210;2023-07-13T07:23:43;19.00;1.00
2967;DHT22;1493;51.496;7.210;2023-07-13T07:26:10;19.10;56.90
2967;DHT22;1493;51.496;7.210;2023-07-13T07:28:37;19.10;1.00
2967;DHT22;1493;51.496;7.210;2023-07-13T07:31:04;19.20;99.90
2967;DHT22;1493;51.496;7.210;2023-07-13T07:33:31;19.30;99.90
2967;DHT22;1493;51.496;7.210;2023-07-13T07:35:58;19.40;99.90
2967;DHT22;1493;51.496;7.210;2023-07-13T07:38:26;19.50;99.90
2967;DHT22;1493;51.496;7.210;2023-07-13T07:40:53;19.60;33.70
2967;DHT22;1493;51.496;7.210;2023-07-13T07:43:20;19.70;99.90
2967;DHT22;1493;51.496;7.210;2023-07-13T07:45:47;19.90;1.00
2967;DHT22;1493;51.496;7.210;2023-07-13T07:48:13;19.90;1.00
2967;DHT22;1493;51.496;7.210;2023-07-13T07:50:40;20.00;99.90
2967;DHT22;1493;51.496;7.210;2023-07-13T07:53:07;20.00;99.90
2967;DHT22;1493;51.496;7.210;2023-07-13T07:55:37;19.80;99.90
2967;DHT22;1493;51.496;7.210;2023-07-13T07:58:04;19.70;99.90
2967;DHT22;1493;51.496;7.210;2023-07-13T08:00:31;19.70;99.90
2967;DHT22;1493;51.496;7.210;2023-07-13T08:02:58;19.60;1.00
2967;DHT22;1493;51.496;7.210;2023-07-13T08:05:25;19.50;99.90
2967;DHT22;1493;51.496;7.210;2023-07-13T08:07:52;19.40;99.90
2967;DHT22;1493;51.496;7.210;2023-07-13T08:10:19;19.40;99.90
2967;DHT22;1493;51.496;7.210;2023-07-13T08:12:47;19.40;99.90
2967;DHT22;1493;51.496;7.210;2023-07-13T08:15:16;19.60;1.00
2967;DHT22;1493;51.496;7.210;2023-07-13T08:17:43;19.90;1.00
2967;DHT22;1493;51.496;7.210;2023-07-13T08:20:10;20.00;1.00
2967;DHT22;1493;51.496;7.210;2023-07-13T08:22:37;20.00;1.00
2967;DHT22;1493;51.496;7.210;2023-07-13T08:25:04;20.20;99.90
2967;DHT22;1493;51.496;7.210;2023-07-13T08:27:31;20.50;1.00
2967;DHT22;1493;51.496;7.210;2023-07-13T08:29:59;20.70;99.90
2967;DHT22;1493;51.496;7.210;2023-07-13T08:32:26;20.80;99.90
2967;DHT22;1493;51.496;7.210;2023-07-13T08:34:53;20.80;1.00
2967;DHT22;1493;51.496;7.210;2023-07-13T08:37:20;20.70;1.00
2967;DHT22;1493;51.496;7.210;2023-07-13T08:39:47;20.60;99.90
2967;DHT22;1493;51.496;7.210;2023-07-13T08:42:20;20.50;1.00
2967;DHT22;1493;51.496;7.210;2023-07-13T08:44:55;20.50;1.00
2967;DHT22;1493;51.496;7.210;2023-07-13T08:47:26;20.40;1.00
2967;DHT22;1493;51.496;7.210;2023-07-13T08:49:55;20.10;99.90
2967;DHT22;1493;51.496;7.210;2023-07-13T08:52:30;20.30;94.60
2967;DHT22;1493;51.496;7.210;2023-07-13T08:55:04;20.40;99.90
2967;DHT22;1493;51.496;7.210;2023-07-13T08:57:34;20.40;1.00
2967;DHT22;1493;51.496;7.210;2023-07-13T09:00:01;20.30;1.00
2967;DHT22;1493;51.496;7.210;2023-07-13T09:02:41;20.40;99.90
2967;DHT22;1493;51.496;7.210;2023-07-13T09:05:13;20.70;99.90
2967;DHT22;1493;51.496;7.210;2023-07-13T09:07:58;21.00;99.90
2967;DHT22;1493;51.496;7.210;2023-07-13T09:10:31;21.10;99.90
2967;DHT22;1493;51.496;7.210;2023-07-13T09:13:09;21.10;99.90
2967;DHT22;1493;51.496;7.210;2023-07-13T09:15:41;21.30;99.90
2967;DHT22;1493;51.496;7.210;2023-07-13T09:18:11;21.10;99.90
2967;DHT22;1493;51.496;7.210;2023-07-13T09:20:44;21.30;99.90
2967;DHT22;1493;51.496;7.210;2023-07-13T09:23:14;21.50;99.90
2967;DHT22;1493;51.496;7.210;2023-07-13T09:25:45;21.70;99.90
2967;DHT22;1493;51.496;7.210;2023-07-13T09:28:16;21.80;1.00
2967;DHT22;1493;51.496;7.210;2023-07-13T09:30:51;21.70;99.90
2967;DHT22;1493;51.496;7.210;2023-07-13T09:33:20;21.70;1.00
2967;DHT22;1493;51.496;7.210;2023-07-13T09:35:46;21.70;1.00
2967;DHT22;1493;51.496;7.210;2023-07-13T09:38:15;21.80;99.90
2967;DHT22;1493;51.496;7.210;2023-07-13T09:40:56;22.10;99.90
2967;DHT22;1493;51.496;7.210;2023-07-13T09:43:25;22.50;99.90
2967;DHT22;1493;51.496;7.210;2023-07-13T09:45:54;22.80;1.00
2967;DHT22;1493;51.496;7.210;2023-07-13T09:48:23;23.00;1.00
2967;DHT22;1493;51.496;7.210;2023-07-13T09:50:54;23.10;1.00
2967;DHT22;1493;51.496;7.210;2023-07-13T09:53:22;23.10;1.00
2967;DHT22;1493;51.496;7.210;2023-07-13T09:55:50;22.90;1.00
2967;DHT22;1493;51.496;7.210;2023-07-13T09:58:19;22.70;1.00
2967;DHT22;1493;51.496;7.210;2023-07-13T10:00:55;22.60;1.00
2967;DHT22;1493;51.496;7.210;2023-07-13T10:03:27;22.80;1.00
2967;DHT22;1493;51.496;7.210;2023-07-13T10:06:03;22.90;1.00
2967;DHT22;1493;51.496;7.210;2023-07-13T10:08:36;23.20;1.00
2967;DHT22;1493;51.496;7.210;2023-07-13T10:11:10;23.30;1.00
2967;DHT22;1493;51.496;7.210;2023-07-13T10:13:41;23.10;1.00
2967;DHT22;1493;51.496;7.210;2023-07-13T10:16:09;23.30;1.00
2967;DHT22;1493;51.496;7.210;2023-07-13T10:18:42;23.40;1.00
2967;DHT22;1493;51.496;7.210;2023-07-13T10:21:13;23.20;1.00
2967;DHT22;1493;51.496;7.210;2023-07-13T10:23:40;23.30;1.00
2967;DHT22;1493;51.496;7.210;2023-07-13T10:26:13;23.60;1.00
2967;DHT22;1493;51.496;7.210;2023-07-13T10:28:42;24.10;99.90
2967;DHT22;1493;51.496;7.210;2023-07-13T10:31:14;24.30;99.90
2967;DHT22;1493;51.496;7.210;2023-07-13T10:33:43;24.00;99.90
2967;DHT22;1493;51.496;7.210;2023-07-13T10:36:15;23.90;99.90
2967;DHT22;1493;51.496;7.210;2023-07-13T10:38:43;23.70;99.90
2967;DHT22;1493;51.496;7.210;2023-07-13T10:41:16;23.50;99.90
2967;DHT22;1493;51.496;7.210;2023-07-13T10:43:46;23.20;99.90
2967;DHT22;1493;51.496;7.210;2023-07-13T10:46:17;23.00;1.00
2967;DHT22;1493;51.496;7.210;2023-07-13T10:48:49;22.70;1.00
2967;DHT22;1493;51.496;7.210;2023-07-13T10:51:18;22.60;1.00
2967;DHT22;1493;51.496;7.210;2023-07-13T10:53:47;22.60;1.00
2967;DHT22;1493;51.496;7.210;2023-07-13T10:56:23;22.50;1.00
2967;DHT22;1493;51.496;7.210;2023-07-13T10:59:11;22.70;1.00
2967;DHT22;1493;51.496;7.210;2023-07-13T11:01:46;22.70;1.00
2967;DHT22;1493;51.496;7.210;2023-07-13T11:04:16;22.80;1.00
2967;DHT22;1493;51.496;7.210;2023-07-13T11:06:48;22.60;1.00
2967;DHT22;1493;51.496;7.210;2023-07-13T11:09:31;22.60;1.00
2967;DHT22;1493;51.496;7.210;2023-07-13T11:12:00;22.80;1.00
2967;DHT22;1493;51.496;7.210;2023-07-13T11:14:31;23.00;1.00
2967;DHT22;1493;51.496;7.210;2023-07-13T11:17:24;23.40;1.00
2967;DHT22;1493;51.496;7.210;2023-07-13T11:23:29;24.70;99.90
2967;DHT22;1493;51.496;7.210;2023-07-13T11:25:56;25.50;99.90
2967;DHT22;1493;51.496;7.210;2023-07-13T11:28:26;25.80;99.90
2967;DHT22;1493;51.496;7.210;2023-07-13T11:31:12;25.90;99.90
2967;DHT22;1493;51.496;7.210;2023-07-13T11:33:58;26.10;99.90
2967;DHT22;1493;51.496;7.210;2023-07-13T11:36:35;26.60;1.00
2967;DHT22;1493;51.496;7.210;2023-07-13T11:39:05;26.70;99.90
2967;DHT22;1493;51.496;7.210;2023-07-13T11:41:44;26.80;99.90
2967;DHT22;1493;51.496;7.210;2023-07-13T11:44:14;26.40;99.90
2967;DHT22;1493;51.496;7.210;2023-07-13T11:46:45;26.90;99.90
2967;DHT22;1493;51.496;7.210;2023-07-13T11:49:16;27.00;99.90
2967;DHT22;1493;51.496;7.210;2023-07-13T11:51:45;27.30;99.90
2967;DHT22;1493;51.496;7.210;2023-07-13T11:54:23;27.50;99.90
2967;DHT22;1493;51.496;7.210;2023-07-13T11:56:52;27.40;99.90
2967;DHT22;1493;51.496;7.210;2023-07-13T11:59:19;27.60;99.90
2967;DHT22;1493;51.496;7.210;2023-07-13T12:01:50;27.60;99.90
2967;DHT22;1493;51.496;7.210;2023-07-13T12:04:22;27.30;99.90
2967;DHT22;1493;51.496;7.210;2023-07-13T12:06:56;27.10;99.90
2967;DHT22;1493;51.496;7.210;2023-07-13T12:09:26;26.90;99.90
2967;DHT22;1493;51.496;7.210;2023-07-13T12:11:56;26.50;99.90
2967;DHT22;1493;51.496;7.210;2023-07-13T12:14:23;26.30;99.90
2967;DHT22;1493;51.496;7.210;2023-07-13T12:16:53;26.50;99.90
2967;DHT22;1493;51.496;7.210;2023-07-13T12:19:21;27.00;99.90
2967;DHT22;1493;51.496;7.210;2023-07-13T12:21:52;27.40;99.90
2967;DHT22;1493;51.496;7.210;2023-07-13T12:24:21;27.70;99.90
2967;DHT22;1493;51.496;7.210;2023-07-13T12:26:53;28.00;99.90
2967;DHT22;1493;51.496;7.210;2023-07-13T12:29:20;28.10;99.90
2967;DHT22;1493;51.496;7.210;2023-07-13T12:31:49;27.10;99.90
2967;DHT22;1493;51.496;7.210;2023-07-13T12:34:19;27.20;99.90
2967;DHT22;1493;51.496;7.210;2023-07-13T12:36:47;26.90;99.90
2967;DHT22;1493;51.496;7.210;2023-07-13T12:39:17;27.40;99.90
2967;DHT22;1493;51.496;7.210;2023-07-13T12:41:47;27.70;99.90
2967;DHT22;1493;51.496;7.210;2023-07-13T12:44:17;28.10;99.90
2967;DHT22;1493;51.496;7.210;2023-07-13T12:46:53;28.20;99.90
2967;DHT22;1493;51.496;7.210;2023-07-13T12:49:24;28.00;99.90
2967;DHT22;1493;51.496;7.210;2023-07-13T12:51:56;27.60;99.90
2967;DHT22;1493;51.496;7.210;2023-07-13T12:54:25;27.50;99.90
2967;DHT22;1493;51.496;7.210;2023-07-13T12:56:54;27.20;99.90
2967;DHT22;1493;51.496;7.210;2023-07-13T12:59:26;26.90;99.90
2967;DHT22;1493;51.496;7.210;2023-07-13T13:01:55;26.60;99.90
2967;DHT22;1493;51.496;7.210;2023-07-13T13:04:23;26.60;99.90
2967;DHT22;1493;51.496;7.210;2023-07-13T13:07:01;26.70;99.90
2967;DHT22;1493;51.496;7.210;2023-07-13T13:09:28;26.60;99.90
2967;DHT22;1493;51.496;7.210;2023-07-13T13:11:56;26.20;99.90
2967;DHT22;1493;51.496;7.210;2023-07-13T13:14:23;25.90;99.90
2967;DHT22;1493;51.496;7.210;2023-07-13T13:16:51;25.60;99.90
2967;DHT22;1493;51.496;7.210;2023-07-13T13:19:21;25.30;99.90
2967;DHT22;1493;51.496;7.210;2023-07-13T13:21:50;25.00;99.90
2967;DHT22;1493;51.496;7.210;2023-07-13T13:24:19;24.40;1.00
2967;DHT22;1493;51.496;7.210;2023-07-13T13:26:47;24.30;99.90
2967;DHT22;1493;51.496;7.210;2023-07-13T13:29:19;23.90;99.90
2967;DHT22;1493;51.496;7.210;2023-07-13T13:31:46;23.50;99.90
2967;DHT22;1493;51.496;7.210;2023-07-13T13:34:15;23.30;99.90
2967;DHT22;1493;51.496;7.210;2023-07-13T13:36:43;22.90;99.90
2967;DHT22;1493;51.496;7.210;2023-07-13T13:39:21;22.60;99.90
2967;DHT22;1493;51.496;7.210;2023-07-13T13:41:49;22.40;99.90
2967;DHT22;1493;51.496;7.210;2023-07-13T13:44:18;21.90;1.00
2967;DHT22;1493;51.496;7.210;2023-07-13T13:46:50;21.60;99.90
2967;DHT22;1493;51.496;7.210;2023-07-13T13:49:23;21.40;99.90
2967;DHT22;1493;51.496;7.210;2023-07-13T13:51:51;21.20;8.00
2967;DHT22;1493;51.496;7.210;2023-07-13T13:54:23;20.90;99.90
2967;DHT22;1493;51.496;7.210;2023-07-13T13:56:54;20.70;1.00
2967;DHT22;1493;51.496;7.210;2023-07-13T13:59:23;20.60;99.90
2967;DHT22;1493;51.496;7.210;2023-07-13T14:01:51;20.50;99.90
2967;DHT22;1493;51.496;7.210;2023-07-13T14:04:19;20.50;1.00
2967;DHT22;1493;51.496;7.210;2023-07-13T14:06:47;20.50;1.00
2967;DHT22;1493;51.496;7.210;2023-07-13T14:09:17;20.50;1.00
2967;DHT22;1493;51.496;7.210;2023-07-13T14:11:45;20.60;1.00
2967;DHT22;1493;51.496;7.210;2023-07-13T14:14:16;20.80;1.00
2967;DHT22;1493;51.496;7.210;2023-07-13T14:16:44;20.90;1.00
2967;DHT22;1493;51.496;7.210;2023-07-13T14:19:14;21.10;1.00
2967;DHT22;1493;51.496;7.210;2023-07-13T14:21:41;21.30;99.90
2967;DHT22;1493;51.496;7.210;2023-07-13T14:24:08;21.40;99.90
2967;DHT22;1493;51.496;7.210;2023-07-13T14:26:37;21.40;1.00
2967;DHT22;1493;51.496;7.210;2023-07-13T14:29:12;21.40;99.90
2967;DHT22;1493;51.496;7.210;2023-07-13T14:31:40;21.30;99.90
2967;DHT22;1493;51.496;7.210;2023-07-13T14:34:10;21.10;99.90
2967;DHT22;1493;51.496;7.210;2023-07-13T14:36:39;20.90;99.90
2967;DHT22;1493;51.496;7.210;2023-07-13T14:39:12;20.80;99.90
2967;DHT22;1493;51.496;7.210;2023-07-13T14:41:39;20.70;99.90
2967;DHT22;1493;51.496;7.210;2023-07-13T14:44:11;20.50;1.00
2967;DHT22;1493;51.496;7.210;2023-07-13T14:46:38;20.40;1.00
2967;DHT22;1493;51.496;7.210;2023-07-13T14:49:07;20.40;1.00
2967;DHT22;1493;51.496;7.210;2023-07-13T14:51:40;20.40;56.80
2967;DHT22;1493;51.496;7.210;2023-07-13T14:54:08;20.40;88.20
2967;DHT22;1493;51.496;7.210;2023-07-13T14:56:37;20.30;82.10
2967;DHT22;1493;51.496;7.210;2023-07-13T14:59:03;20.30;57.80
2967;DHT22;1493;51.496;7.210;2023-07-13T15:01:33;20.20;99.90
2967;DHT22;1493;51.496;7.210;2023-07-13T15:04:00;20.20;99.90
2967;DHT22;1493;51.496;7.210;2023-07-13T15:06:27;20.70;99.90
2967;DHT22;1493;51.496;7.210;2023-07-13T15:08:55;20.40;99.90
2967;DHT22;1493;51.496;7.210;2023-07-13T15:11:22;20.60;99.90
2967;DHT22;1493;51.496;7.210;2023-07-13T15:13:49;20.90;99.90
2967;DHT22;1493;51.496;7.210;2023-07-13T15:16:20;21.30;99.90
2967;DHT22;1493;51.496;7.210;2023-07-13T15:18:48;21.80;99.90
2967;DHT22;1493;51.496;7.210;2023-07-13T15:21:24;22.20;1.00
2967;DHT22;1493;51.496;7.210;2023-07-13T15:23:55;22.60;99.90
2967;DHT22;1493;51.496;7.210;2023-07-13T15:26:21;22.90;1.00
2967;DHT22;1493;51.496;7.210;2023-07-13T15:28:48;22.80;99.90
2967;DHT22;1493;51.496;7.210;2023-07-13T15:31:20;22.70;99.90
2967;DHT22;1493;51.496;7.210;2023-07-13T15:33:49;22.50;1.00
2967;DHT22;1493;51.496;7.210;2023-07-13T15:36:16;22.40;1.00
2967;DHT22;1493;51.496;7.210;2023-07-13T15:38:44;22.00;1.00
2967;DHT22;1493;51.496;7.210;2023-07-13T15:41:17;21.90;1.00
2967;DHT22;1493;51.496;7.210;2023-07-13T15:43:44;21.80;1.00
2967;DHT22;1493;51.496;7.210;2023-07-13T15:46:11;21.70;1.00
2967;DHT22;1493;51.496;7.210;2023-07-13T15:48:38;21.50;2.00
2967;DHT22;1493;51.496;7.210;2023-07-13T15:51:08;21.40;47.20
2967;DHT22;1493;51.496;7.210;2023-07-13T15:53:38;21.40;99.90
2967;DHT22;1493;51.496;7.210;2023-07-13T15:56:21;21.20;99.90
2967;DHT22;1493;51.496;7.210;2023-07-13T15:58:49;21.10;99.90
2967;DHT22;1493;51.496;7.210;2023-07-13T16:01:16;20.90;99.90
2967;DHT22;1493;51.496;7.210;2023-07-13T16:03:44;20.20;99.90
2967;DHT22;1493;51.496;7.210;2023-07-13T16:06:16;20.00;93.40
2967;DHT22;1493;51.496;7.210;2023-07-13T16:08:44;19.70;87.40
2967;DHT22;1493;51.496;7.210;2023-07-13T16:11:17;19.50;99.90
2967;DHT22;1493;51.496;7.210;2023-07-13T16:13:46;19.20;99.90
2967;DHT22;1493;51.496;7.210;2023-07-13T16:16:14;19.10;99.90
2967;DHT22;1493;51.496;7.210;2023-07-13T16:18:41;19.00;99.90
2967;DHT22;1493;51.496;7.210;2023-07-13T16:21:12;18.90;99.90
2967;DHT22;1493;51.496;7.210;2023-07-13T16:23:41;18.80;99.90